createdAt,value
2022-12-18T00:01:07.151Z,102138.34
2022-12-18T00:03:35.024Z,102139.22
2022-12-18T00:06:01.676Z,102139.13
2022-12-18T00:08:29.170Z,102128.81
2022-12-18T00:10:55.748Z,102128.69
2022-12-18T00:13:26.244Z,102138.03
2022-12-18T00:15:54.515Z,102135.56
2022-12-18T00:18:23.239Z,102137.22
2022-12-18T00:20:49.645Z,102138.72
2022-12-18T00:23:16.073Z,102132.03
2022-12-18T00:25:42.492Z,102133.00
2022-12-18T00:28:08.913Z,102131.25
2022-12-18T00:30:35.391Z,102142.47
2022-12-18T00:33:01.861Z,102143.34
2022-12-18T00:35:28.514Z,102144.16
2022-12-18T00:37:55.025Z,102144.91
2022-12-18T00:40:21.451Z,102135.56
2022-12-18T00:42:56.850Z,102133.78
2022-12-18T00:45:29.026Z,102132.44
2022-12-18T00:47:56.623Z,102121.41
2022-12-18T00:50:24.805Z,102123.97
2022-12-18T00:52:51.406Z,102123.97
2022-12-18T00:55:18.797Z,102125.72
2022-12-18T00:57:45.226Z,102127.00
2022-12-18T01:00:15.210Z,102127.09
2022-12-18T01:02:41.957Z,102138.22
2022-12-18T01:05:10.937Z,102133.97
2022-12-18T01:07:37.561Z,102130.75
2022-12-18T01:10:05.224Z,102134.94
2022-12-18T01:12:32.162Z,102133.31
2022-12-18T01:14:58.723Z,102134.88
2022-12-18T01:17:25.389Z,102131.25
2022-12-18T01:19:51.829Z,102138.72
2022-12-18T01:22:18.279Z,102139.41
2022-12-18T01:24:44.714Z,102138.59
2022-12-18T01:27:11.324Z,102137.72
2022-12-18T01:29:37.760Z,102132.63
2022-12-18T01:32:04.502Z,102127.31
2022-12-18T01:34:30.957Z,102132.53
2022-12-18T01:36:57.493Z,102123.00
2022-12-18T01:39:23.948Z,102125.47
2022-12-18T01:42:02.390Z,102127.13
2022-12-18T01:45:06.541Z,102126.34
2022-12-18T01:47:45.771Z,102122.19
2022-12-18T01:50:17.709Z,102113.03
2022-12-18T01:52:48.348Z,102109.91
2022-12-18T01:55:19.114Z,102110.19
2022-12-18T01:57:45.980Z,102114.63
2022-12-18T02:00:20.214Z,102119.91
2022-12-18T02:02:48.432Z,102122.00
2022-12-18T02:05:24.617Z,102126.41
2022-12-18T02:08:05.207Z,102119.59
2022-12-18T02:10:37.964Z,102128.34
2022-12-18T02:13:33.186Z,102137.69
2022-12-18T02:16:24.606Z,102131.13
2022-12-18T02:19:01.528Z,102126.88
2022-12-18T02:21:45.438Z,102120.97
2022-12-18T02:24:36.140Z,102122.56
2022-12-18T02:27:08.508Z,102114.09
2022-12-18T02:29:58.873Z,102120.97
2022-12-18T02:32:33.824Z,102117.53
2022-12-18T02:35:02.067Z,102102.97
2022-12-18T02:37:30.576Z,102104.53
2022-12-18T02:39:59.299Z,102091.66
2022-12-18T02:42:27.011Z,102092.28
2022-12-18T02:44:53.428Z,102091.38
2022-12-18T02:47:23.912Z,102091.47
2022-12-18T02:50:06.378Z,102113.63
2022-12-18T02:52:45.265Z,102105.06
2022-12-18T02:55:46.869Z,102113.69
2022-12-18T02:58:16.856Z,102108.75
2022-12-18T03:00:53.499Z,102108.59
2022-12-18T03:03:31.103Z,102100.22
2022-12-18T03:06:11.726Z,102105.22
2022-12-18T03:08:46.177Z,102101.88
2022-12-18T03:11:14.738Z,102095.81
2022-12-18T03:13:43.877Z,102097.66
2022-12-18T03:16:15.100Z,102096.78
2022-12-18T03:19:15.566Z,102089.19
2022-12-18T03:21:50.164Z,102090.28
2022-12-18T03:24:19.825Z,102091.06
2022-12-18T03:26:48.828Z,102088.44
2022-12-18T03:29:22.450Z,102087.41
2022-12-18T03:31:55.286Z,102084.78
2022-12-18T03:34:30.913Z,102084.59
2022-12-18T03:36:57.481Z,102080.28
2022-12-18T03:39:24.444Z,102086.19
2022-12-18T03:42:05.958Z,102091.09
2022-12-18T03:44:44.390Z,102089.31
2022-12-18T03:47:20.554Z,102089.16
2022-12-18T03:49:59.841Z,102085.63
2022-12-18T03:52:45.614Z,102087.97
2022-12-18T03:55:13.123Z,102076.75
2022-12-18T03:57:40.461Z,102083.56
2022-12-18T04:00:11.465Z,102080.03
2022-12-18T04:02:42.043Z,102073.16
2022-12-18T04:05:10.662Z,102067.81
2022-12-18T04:07:39.271Z,102063.59
2022-12-18T04:10:08.624Z,102063.41
2022-12-18T04:12:35.092Z,102060.84
2022-12-18T04:15:01.624Z,102059.09
2022-12-18T04:17:28.140Z,102058.22
2022-12-18T04:19:54.566Z,102063.09
2022-12-18T04:22:21.025Z,102060.47
2022-12-18T04:24:47.435Z,102060.47
2022-12-18T04:27:13.950Z,102055.16
2022-12-18T04:29:40.600Z,102054.38
2022-12-18T04:32:07.047Z,102055.16
2022-12-18T04:34:33.528Z,102060.28
2022-12-18T04:36:59.952Z,102064.50
2022-12-18T04:39:26.488Z,102057.72
2022-12-18T04:41:53.090Z,102061.88
2022-12-18T04:44:19.488Z,102058.31
2022-12-18T04:46:45.977Z,102060.75
2022-12-18T04:49:12.558Z,102060.69
2022-12-18T04:51:39.502Z,102059.88
2022-12-18T04:54:05.998Z,102056.44
2022-12-18T04:56:33.061Z,102059.88
2022-12-18T04:58:59.627Z,102047.09
2022-12-18T05:01:31.006Z,102042.97
2022-12-18T05:04:01.023Z,102042.97
2022-12-18T05:06:27.521Z,102036.09
2022-12-18T05:08:53.913Z,102040.41
2022-12-18T05:11:20.380Z,102037.84
2022-12-18T05:13:46.861Z,102037.78
2022-12-18T05:16:14.253Z,102041.22
2022-12-18T05:18:41.251Z,102036.78
2022-12-18T05:21:07.839Z,102040.94
2022-12-18T05:23:34.213Z,102040.72
2022-12-18T05:26:03.223Z,102034.72
2022-12-18T05:28:32.013Z,102039.97
2022-12-18T05:31:01.615Z,102033.06
2022-12-18T05:33:31.431Z,102031.19
2022-12-18T05:36:02.773Z,102030.22
2022-12-18T05:38:31.297Z,102032.69
2022-12-18T05:40:58.401Z,102039.66
2022-12-18T05:43:26.728Z,102047.31
2022-12-18T05:45:53.839Z,102046.53
2022-12-18T05:48:21.412Z,102060.28
2022-12-18T05:50:49.421Z,102050.94
2022-12-18T05:53:18.590Z,102064.59
2022-12-18T05:55:45.488Z,102066.41
2022-12-18T05:58:13.693Z,102071.59
2022-12-18T06:00:42.794Z,102078.56
2022-12-18T06:03:10.459Z,102078.75
2022-12-18T06:05:39.201Z,102088.97
2022-12-18T06:08:06.003Z,102086.53
2022-12-18T06:10:33.312Z,102089.19
2022-12-18T06:12:59.885Z,102101.97
2022-12-18T06:15:26.317Z,102096.75
2022-12-18T06:17:52.764Z,102110.22
2022-12-18T06:20:19.817Z,102110.91
2022-12-18T06:22:46.377Z,102115.94
2022-12-18T06:25:12.974Z,102115.84
2022-12-18T06:27:39.511Z,102113.16
2022-12-18T06:30:06.582Z,102111.28
2022-12-18T06:32:33.269Z,102110.13
2022-12-18T06:34:59.671Z,102099.31
2022-12-18T06:37:27.124Z,102112.75
2022-12-18T06:39:54.827Z,102095.09
2022-12-18T06:42:21.279Z,102086.84
2022-12-18T06:44:47.790Z,102079.34
2022-12-18T06:47:14.265Z,102082.59
2022-12-18T06:49:40.776Z,102081.63
2022-12-18T06:52:07.251Z,102075.22
2022-12-18T06:54:33.681Z,102074.25
2022-12-18T06:57:00.083Z,102062.84
2022-12-18T06:59:26.512Z,102069.84
2022-12-18T07:01:54.440Z,102068.97
2022-12-18T07:04:20.996Z,102063.63
2022-12-18T07:06:47.665Z,102065.41
2022-12-18T07:09:14.113Z,102057.56
2022-12-18T07:11:40.585Z,102055.78
2022-12-18T07:14:06.997Z,102050.69
2022-12-18T07:16:33.442Z,102052.13
2022-12-18T07:18:59.934Z,102058.03
2022-12-18T07:21:26.654Z,102065.59
2022-12-18T07:23:53.185Z,102076.69
2022-12-18T07:26:21.810Z,102068.16
2022-12-18T07:28:48.904Z,102075.81
2022-12-18T07:31:19.388Z,102082.41
2022-12-18T07:33:47.223Z,102071.88
2022-12-18T07:36:14.542Z,102068.44
2022-12-18T07:38:41.828Z,102062.34
2022-12-18T07:41:10.962Z,102045.28
2022-12-18T07:43:38.667Z,102049.69
2022-12-18T07:46:06.047Z,102047.03
2022-12-18T07:48:33.050Z,102050.56
2022-12-18T07:51:05.214Z,102058.63
2022-12-18T07:53:32.538Z,102052.66
2022-12-18T07:56:28.607Z,102050.09
2022-12-18T07:58:57.264Z,102051.44
2022-12-18T08:01:24.113Z,102060.09
2022-12-18T08:03:52.130Z,102050.88
2022-12-18T08:06:19.313Z,102047.53
2022-12-18T08:08:49.293Z,102045.97
2022-12-18T08:11:17.118Z,102034.88
2022-12-18T08:13:43.912Z,102033.38
2022-12-18T08:16:10.798Z,102033.59
2022-12-18T08:18:38.434Z,102025.22
2022-12-18T08:21:23.731Z,102024.44
2022-12-18T08:23:51.757Z,102020.63
2022-12-18T08:26:19.631Z,102004.69
2022-12-18T08:28:47.498Z,101994.69
2022-12-18T08:31:14.598Z,101992.13
2022-12-18T08:33:42.259Z,101992.31
2022-12-18T08:36:10.850Z,101984.81
2022-12-18T08:38:37.369Z,101983.34
2022-12-18T08:41:07.465Z,101980.19
2022-12-18T08:43:53.044Z,101977.13
2022-12-18T08:46:21.220Z,101984.41
2022-12-18T08:48:48.116Z,101987.31
2022-12-18T08:51:17.306Z,101993.50
2022-12-18T08:53:45.436Z,102005.19
2022-12-18T08:56:13.105Z,101992.88
2022-12-18T08:58:39.849Z,101988.13
2022-12-18T09:01:10.316Z,101994.47
2022-12-18T09:03:37.626Z,101999.00
2022-12-18T09:06:04.587Z,101993.34
2022-12-18T09:08:31.083Z,101995.41
2022-12-18T09:10:57.576Z,101983.06
2022-12-18T09:13:24.101Z,101975.56
2022-12-18T09:15:53.304Z,101963.84
2022-12-18T09:18:21.588Z,101958.28
2022-12-18T09:20:48.137Z,101966.31
2022-12-18T09:23:15.432Z,101965.00
2022-12-18T09:25:41.948Z,101963.75
2022-12-18T09:28:16.713Z,101965.78
2022-12-18T09:30:46.578Z,101957.75
2022-12-18T09:33:13.667Z,101965.75
2022-12-18T09:35:42.025Z,101952.28
2022-12-18T09:38:10.954Z,101962.84
2022-12-18T09:40:43.392Z,101965.41
2022-12-18T09:43:16.625Z,101957.72
2022-12-18T09:45:47.125Z,101955.50
2022-12-18T09:48:39.598Z,101952.66
2022-12-18T09:51:19.348Z,101947.16
2022-12-18T09:53:51.816Z,101946.63
2022-12-18T09:56:23.806Z,101948.88
2022-12-18T09:59:04.565Z,101943.44
2022-12-18T10:01:39.133Z,101933.06
2022-12-18T10:04:11.224Z,101926.66
2022-12-18T10:06:53.742Z,101924.72
2022-12-18T10:09:35.625Z,101917.56
2022-12-18T10:12:24.725Z,101924.72
2022-12-18T10:15:21.844Z,101912.56
2022-12-18T10:17:57.281Z,101911.47
2022-12-18T10:20:33.767Z,101916.31
2022-12-18T10:23:14.127Z,101921.75
2022-12-18T10:25:48.438Z,101911.94
2022-12-18T10:28:17.433Z,101905.13
2022-12-18T10:30:44.368Z,101896.09
2022-12-18T10:33:18.433Z,101891.41
2022-12-18T10:35:47.936Z,101885.84
2022-12-18T10:38:17.465Z,101882.31
2022-12-18T10:41:05.497Z,101884.19
2022-12-18T10:43:37.465Z,101880.75
2022-12-18T10:46:10.028Z,101888.75
2022-12-18T10:48:54.460Z,101886.38
2022-12-18T10:51:22.687Z,101888.91
2022-12-18T10:54:13.613Z,101875.22
2022-12-18T10:56:40.156Z,101874.59
2022-12-18T10:59:09.781Z,101867.22
2022-12-18T11:01:59.075Z,101861.75
2022-12-18T11:04:28.380Z,101850.13
2022-12-18T11:07:06.738Z,101839.91
2022-12-18T11:09:35.080Z,101847.84
2022-12-18T11:12:23.163Z,101847.75
2022-12-18T11:14:52.400Z,101846.22
2022-12-18T11:17:26.465Z,101845.66
2022-12-18T11:19:56.223Z,101848.31
2022-12-18T11:22:31.492Z,101855.44
2022-12-18T11:27:56.668Z,101843.03
2022-12-18T11:30:25.222Z,101842.22
2022-12-18T11:33:10.483Z,101829.69
2022-12-18T11:35:46.015Z,101822.06
2022-12-18T11:38:22.093Z,101817.69
2022-12-18T11:40:58.510Z,101805.63
2022-12-18T11:43:28.823Z,101798.25
2022-12-18T11:46:20.045Z,101803.31
2022-12-18T11:49:08.631Z,101804.13
2022-12-18T11:51:49.742Z,101806.69
2022-12-18T11:54:17.305Z,101810.09
2022-12-18T11:57:06.758Z,101793.78
2022-12-18T11:59:51.964Z,101789.44
2022-12-18T12:03:09.613Z,101797.16
2022-12-18T12:06:15.583Z,101798.03
2022-12-18T12:09:12.257Z,101800.88
2022-12-18T12:11:50.942Z,101795.53
2022-12-18T12:14:47.877Z,101793.28
2022-12-18T12:17:20.286Z,101800.88
2022-12-18T12:19:52.897Z,101805.38
2022-12-18T12:22:31.644Z,101800.13
2022-12-18T12:25:28.178Z,101789.72
2022-12-18T12:28:14.445Z,101784.56
2022-12-18T12:30:59.181Z,101776.78
2022-12-18T12:34:00.804Z,101770.81
2022-12-18T12:36:45.608Z,101769.13
2022-12-18T12:39:17.333Z,101774.13
2022-12-18T12:42:05.912Z,101772.56
2022-12-18T12:44:40.314Z,101773.31
2022-12-18T12:47:22.714Z,101772.50
2022-12-18T12:49:51.675Z,101762.94
2022-12-18T12:52:31.872Z,101765.47
2022-12-18T12:55:00.251Z,101767.09
2022-12-18T12:57:40.941Z,101767.97
2022-12-18T13:00:13.953Z,101772.25
2022-12-18T13:02:51.865Z,101774.88
2022-12-18T13:05:35.443Z,101774.63
2022-12-18T13:08:07.232Z,101776.25
2022-12-18T13:10:42.022Z,101769.47
2022-12-18T13:13:13.053Z,101772.03
2022-12-18T13:15:47.026Z,101777.84
2022-12-18T13:18:18.857Z,101776.84
2022-12-18T13:21:05.144Z,101773.31
2022-12-18T13:23:41.255Z,101769.75
2022-12-18T13:26:09.014Z,101767.00
2022-12-18T13:28:47.739Z,101763.59
2022-12-18T13:31:35.504Z,101756.75
2022-12-18T13:34:27.560Z,101748.06
2022-12-18T13:36:56.578Z,101743.00
2022-12-18T13:39:43.325Z,101733.59
2022-12-18T13:42:49.381Z,101746.41
2022-12-18T13:45:53.321Z,101725.72
2022-12-18T13:48:23.672Z,101722.22
2022-12-18T13:50:54.762Z,101719.59
2022-12-18T13:53:25.873Z,101710.13
2022-12-18T13:55:52.763Z,101709.31
2022-12-18T13:58:19.829Z,101708.38
2022-12-18T14:00:46.476Z,101721.22
2022-12-18T14:03:28.605Z,101714.25
2022-12-18T14:06:01.172Z,101704.91
2022-12-18T14:08:34.895Z,101704.03
2022-12-18T14:11:02.564Z,101705.75
2022-12-18T14:13:34.889Z,101699.69
2022-12-18T14:16:04.363Z,101695.31
2022-12-18T14:18:56.347Z,101690.97
2022-12-18T14:21:30.262Z,101688.47
2022-12-18T14:24:20.035Z,101690.91
2022-12-18T14:26:48.149Z,101682.38
2022-12-18T14:29:28.468Z,101676.38
2022-12-18T14:32:13.376Z,101680.56
2022-12-18T14:34:44.336Z,101681.41
2022-12-18T14:37:14.148Z,101686.44
2022-12-18T14:39:41.058Z,101672.84
2022-12-18T14:42:12.314Z,101673.69
2022-12-18T14:44:50.562Z,101675.22
2022-12-18T14:47:25.477Z,101668.31
2022-12-18T14:49:51.965Z,101672.72
2022-12-18T14:52:30.261Z,101666.63
2022-12-18T14:54:56.739Z,101663.19
2022-12-18T14:57:25.891Z,101663.19
2022-12-18T14:59:52.515Z,101651.09
2022-12-18T15:02:29.690Z,101647.59
2022-12-18T15:05:13.876Z,101645.88
2022-12-18T15:07:51.830Z,101649.41
2022-12-18T15:10:24.283Z,101646.00
2022-12-18T15:12:56.947Z,101652.91
2022-12-18T15:15:38.973Z,101644.38
2022-12-18T15:18:08.609Z,101653.72
2022-12-18T15:21:03.035Z,101640.75
2022-12-18T15:23:39.627Z,101641.41
2022-12-18T15:26:10.042Z,101648.19
2022-12-18T15:28:47.704Z,101638.09
2022-12-18T15:31:14.196Z,101636.53
2022-12-18T15:34:01.689Z,101629.50
2022-12-18T15:36:28.104Z,101637.97
2022-12-18T15:39:04.863Z,101626.00
2022-12-18T15:41:35.209Z,101634.53
2022-12-18T15:44:03.285Z,101639.59
2022-12-18T15:46:31.787Z,101637.84
2022-12-18T15:49:02.132Z,101639.41
2022-12-18T15:51:35.433Z,101641.25
2022-12-18T15:54:07.291Z,101630.16
2022-12-18T15:56:52.439Z,101634.47
2022-12-18T15:59:21.007Z,101634.25
2022-12-18T16:01:50.293Z,101636.72
2022-12-18T16:04:21.427Z,101629.94
2022-12-18T16:07:13.763Z,101626.44
2022-12-18T16:09:34.948Z,101635.78
2022-12-18T16:12:01.589Z,101639.28
2022-12-18T16:14:30.843Z,101628.13
2022-12-18T16:17:03.392Z,101635.91
2022-12-18T16:19:30.478Z,101647.00
2022-12-18T16:21:58.849Z,101639.22
2022-12-18T16:24:30.753Z,101634.69
2022-12-18T16:27:00.194Z,101654.41
2022-12-18T16:29:28.710Z,101649.25
2022-12-18T16:31:56.469Z,101647.56
2022-12-18T16:34:41.368Z,101644.88
2022-12-18T16:37:09.367Z,101637.97
2022-12-18T16:39:37.322Z,101631.88
2022-12-18T16:42:09.719Z,101632.69
2022-12-18T16:44:36.588Z,101623.22
2022-12-18T16:47:04.323Z,101625.69
2022-12-18T16:49:31.362Z,101628.25
2022-12-18T16:51:58.099Z,101626.50
2022-12-18T16:54:25.083Z,101614.47
2022-12-18T16:56:52.555Z,101619.50
2022-12-18T16:59:19.926Z,101613.50
2022-12-18T17:01:46.880Z,101621.16
2022-12-18T17:04:13.486Z,101616.81
2022-12-18T17:06:43.099Z,101615.06
2022-12-18T17:09:15.244Z,101610.75
2022-12-18T17:11:41.756Z,101610.81
2022-12-18T17:14:15.704Z,101613.38
2022-12-18T17:16:42.611Z,101617.59
2022-12-18T17:19:13.706Z,101614.94
2022-12-18T17:21:44.992Z,101610.75
2022-12-18T17:24:11.611Z,101610.75
2022-12-18T17:26:38.120Z,101617.69
2022-12-18T17:29:04.736Z,101613.31
2022-12-18T17:31:32.415Z,101616.72
2022-12-18T17:34:01.040Z,101612.38
2022-12-18T17:36:32.187Z,101607.25
2022-12-18T17:39:00.720Z,101604.59
2022-12-18T17:41:29.160Z,101595.13
2022-12-18T17:44:01.309Z,101592.56
2022-12-18T17:46:30.635Z,101591.69
2022-12-18T17:49:01.223Z,101600.19
2022-12-18T17:51:28.471Z,101600.16
2022-12-18T17:53:55.106Z,101609.59
2022-12-18T17:56:23.532Z,101604.34
2022-12-18T17:58:50.454Z,101604.34
2022-12-18T18:01:20.287Z,101623.16
2022-12-18T18:03:48.352Z,101623.16
2022-12-18T18:06:18.076Z,101628.28
2022-12-18T18:08:44.560Z,101630.84
2022-12-18T18:11:35.091Z,101621.38
2022-12-18T18:14:02.050Z,101612.00
2022-12-18T18:16:37.352Z,101611.09
2022-12-18T18:19:06.494Z,101621.38
2022-12-18T18:21:34.308Z,101612.78
2022-12-18T18:24:04.992Z,101599.88
2022-12-18T18:26:32.627Z,101604.19
2022-12-18T18:29:00.631Z,101604.19
2022-12-18T18:31:31.271Z,101621.38
2022-12-18T18:33:58.011Z,101614.47
2022-12-18T18:36:24.590Z,101622.19
2022-12-18T18:38:51.987Z,101623.88
2022-12-18T18:41:19.426Z,101623.81
2022-12-18T18:43:46.323Z,101619.56
2022-12-18T18:46:14.844Z,101623.00
2022-12-18T18:48:42.373Z,101625.56
2022-12-18T18:51:20.644Z,101616.09
2022-12-18T18:53:50.249Z,101621.25
2022-12-18T18:56:56.576Z,101623.00
2022-12-18T18:59:05.887Z,101616.22
2022-12-18T19:01:32.982Z,101605.84
2022-12-18T19:04:03.726Z,101605.94
2022-12-18T19:06:30.751Z,101605.94
2022-12-18T19:08:58.639Z,101594.88
2022-12-18T19:11:44.241Z,101594.06
2022-12-18T19:14:12.471Z,101594.06
2022-12-18T19:16:40.212Z,101600.97
2022-12-18T19:19:07.506Z,101600.09
2022-12-18T19:21:34.881Z,101591.56
2022-12-18T19:24:02.771Z,101618.19
2022-12-18T19:26:30.238Z,101596.75
2022-12-18T19:29:05.979Z,101603.72
2022-12-18T19:31:35.912Z,101599.38
2022-12-18T19:34:04.863Z,101601.09
2022-12-18T19:36:33.124Z,101595.94
2022-12-18T19:39:01.268Z,101598.56
2022-12-18T19:41:31.076Z,101602.00
2022-12-18T19:43:59.672Z,101598.56
2022-12-18T19:46:26.251Z,101596.09
2022-12-18T19:48:53.606Z,101597.97
2022-12-18T19:51:25.493Z,101597.97
2022-12-18T19:53:58.115Z,101586.81
2022-12-18T19:56:27.625Z,101591.94
2022-12-18T19:58:54.888Z,101585.16
2022-12-18T20:01:23.302Z,101586.84
2022-12-18T20:03:52.657Z,101597.19
2022-12-18T20:06:29.869Z,101595.44
2022-12-18T20:09:00.497Z,101606.59
2022-12-18T20:11:29.081Z,101616.06
2022-12-18T20:13:55.874Z,101616.06
2022-12-18T20:16:22.375Z,101614.38
2022-12-18T20:18:49.409Z,101617.03
2022-12-18T20:21:16.119Z,101609.38
2022-12-18T20:23:43.494Z,101613.75
2022-12-18T20:26:10.593Z,101607.81
2022-12-18T20:28:37.044Z,101614.63
2022-12-18T20:31:08.212Z,101609.50
2022-12-18T20:33:37.364Z,101601.72
2022-12-18T20:36:06.413Z,101591.44
2022-12-18T20:38:35.109Z,101598.34
2022-12-18T20:41:06.447Z,101599.09
2022-12-18T20:43:32.978Z,101598.22
2022-12-18T20:46:07.993Z,101605.13
2022-12-18T20:48:34.519Z,101607.75
2022-12-18T20:51:03.813Z,101606.94
2022-12-18T20:53:30.889Z,101600.97
2022-12-18T20:55:57.425Z,101607.94
2022-12-18T20:58:24.410Z,101615.66
2022-12-18T21:00:51.656Z,101614.84
2022-12-18T21:03:18.891Z,101618.28
2022-12-18T21:05:45.428Z,101611.41
2022-12-18T21:08:11.972Z,101619.16
2022-12-18T21:10:42.348Z,101625.28
2022-12-18T21:13:09.548Z,101610.75
2022-12-18T21:15:37.787Z,101618.66
2022-12-18T21:18:04.461Z,101599.91
2022-12-18T21:20:31.306Z,101612.00
2022-12-18T21:23:08.931Z,101605.25
2022-12-18T21:25:43.595Z,101597.59
2022-12-18T21:28:10.036Z,101594.19
2022-12-18T21:30:36.584Z,101593.38
2022-12-18T21:33:03.250Z,101590.81
2022-12-18T21:35:32.148Z,101602.84
2022-12-18T21:37:58.854Z,101602.03
2022-12-18T21:40:25.417Z,101603.78
2022-12-18T21:43:11.243Z,101595.19
2022-12-18T21:45:42.587Z,101601.16
2022-12-18T21:48:09.062Z,101596.06
2022-12-18T21:50:35.476Z,101590.09
2022-12-18T21:53:01.861Z,101596.88
2022-12-18T21:55:28.400Z,101592.66
2022-12-18T21:57:54.997Z,101580.72
2022-12-18T22:00:21.723Z,101582.38
2022-12-18T22:03:17.723Z,101578.94
2022-12-18T22:05:35.187Z,101570.44
2022-12-18T22:08:01.753Z,101562.72
2022-12-18T22:10:28.596Z,101566.94
2022-12-18T22:13:13.794Z,101566.16
2022-12-18T22:15:52.465Z,101557.56
2022-12-18T22:18:21.197Z,101544.78
2022-12-18T22:20:47.691Z,101549.09
2022-12-18T22:23:14.292Z,101544.78
2022-12-18T22:25:42.645Z,101539.69
2022-12-18T22:28:27.609Z,101536.25
2022-12-18T22:30:54.931Z,101538.00
2022-12-18T22:33:26.226Z,101522.56
2022-12-18T22:35:52.672Z,101526.06
2022-12-18T22:38:19.136Z,101515.78
2022-12-18T22:40:45.602Z,101517.66
2022-12-18T22:43:12.069Z,101516.78
2022-12-18T22:45:38.897Z,101517.72
2022-12-18T22:48:06.077Z,101519.47
2022-12-18T22:50:33.783Z,101516.00
2022-12-18T22:53:00.274Z,101517.75
2022-12-18T22:55:26.728Z,101505.84
2022-12-18T22:57:53.284Z,101513.59
2022-12-18T23:00:23.899Z,101508.59
2022-12-18T23:02:55.787Z,101499.19
2022-12-18T23:05:26.263Z,101492.28
2022-12-18T23:07:52.714Z,101477.69
2022-12-18T23:10:19.219Z,101483.59
2022-12-18T23:12:45.699Z,101479.47
2022-12-18T23:15:12.225Z,101477.06
2022-12-18T23:17:39.732Z,101470.22
2022-12-18T23:20:06.594Z,101473.75
2022-12-18T23:22:32.995Z,101470.34
2022-12-18T23:24:59.400Z,101465.25
2022-12-18T23:27:25.804Z,101461.75
2022-12-18T23:29:52.223Z,101468.59
2022-12-18T23:32:20.132Z,101475.53
2022-12-18T23:34:46.605Z,101459.28
2022-12-18T23:37:13.082Z,101452.44
2022-12-18T23:39:42.426Z,101444.66
2022-12-18T23:42:08.858Z,101437.19
2022-12-18T23:44:36.166Z,101434.47
2022-12-18T23:47:02.840Z,101429.50
2022-12-18T23:49:29.397Z,101440.72
2022-12-18T23:51:56.029Z,101437.31
2022-12-18T23:54:32.669Z,101432.13
2022-12-18T23:56:59.860Z,101422.72
2022-12-18T23:59:26.295Z,101416.00
